createdAt,value
2022-10-11T00:09:24.582Z,97
2022-10-11T00:19:25.466Z,97
2022-10-11T00:39:26.546Z,97
2022-10-11T00:49:27.349Z,97
2022-10-11T00:59:28.351Z,98
2022-10-11T01:09:28.639Z,98
2022-10-11T01:19:29.637Z,98
2022-10-11T01:29:30.581Z,98
2022-10-11T01:49:31.430Z,99
2022-10-11T01:59:32.468Z,99
2022-10-11T02:09:32.687Z,99
2022-10-11T02:19:33.691Z,99
2022-10-11T02:29:33.887Z,99
2022-10-11T02:39:34.914Z,99
2022-10-11T02:49:35.395Z,99
2022-10-11T02:59:36.032Z,99
2022-10-11T03:09:36.293Z,99
2022-10-11T03:19:36.434Z,99
2022-10-11T03:29:36.739Z,99
2022-10-11T03:39:37.514Z,99
2022-10-11T03:49:41.293Z,100
2022-10-11T03:59:38.122Z,100
2022-10-11T04:09:39.077Z,100
2022-10-11T04:19:39.983Z,100
2022-10-11T04:29:40.616Z,100
2022-10-11T04:39:41.195Z,100
2022-10-11T04:49:41.614Z,100
2022-10-11T04:59:45.468Z,100
2022-10-11T05:09:43.382Z,100
2022-10-11T05:19:44.250Z,100
2022-10-11T05:29:45.202Z,100
2022-10-11T05:39:46.002Z,100
2022-10-11T05:59:47.050Z,100
2022-10-11T06:09:48.048Z,100
2022-10-11T06:19:48.997Z,100
2022-10-11T06:29:49.271Z,100
2022-10-11T06:59:50.850Z,100
2022-10-11T07:19:52.089Z,100
2022-10-11T07:29:52.975Z,100
2022-10-11T07:39:53.919Z,100
2022-10-11T07:49:54.357Z,100
2022-10-11T07:59:54.746Z,100
2022-10-11T08:09:54.893Z,100
2022-10-11T08:19:55.597Z,100
2022-10-11T08:29:56.214Z,99
2022-10-11T08:39:57.194Z,99
2022-10-11T08:49:57.616Z,98
2022-10-11T08:59:57.729Z,97
2022-10-11T09:09:58.647Z,96
2022-10-11T09:19:59.592Z,95
2022-10-11T09:30:00.045Z,94
2022-10-11T09:40:00.619Z,92
2022-10-11T09:50:01.499Z,90
2022-10-11T10:00:02.267Z,85
2022-10-11T10:10:03.061Z,83
2022-10-11T10:20:03.722Z,81
2022-10-11T10:30:03.989Z,79
2022-10-11T10:40:04.505Z,78
2022-10-11T10:50:05.296Z,75
2022-10-11T11:00:06.095Z,74
2022-10-11T11:10:07.150Z,76
2022-10-11T11:20:07.505Z,77
2022-10-11T11:30:08.125Z,75
2022-10-11T11:50:09.858Z,68
2022-10-11T12:00:10.097Z,68
2022-10-11T12:10:10.318Z,68
2022-10-11T12:30:11.921Z,66
2022-10-11T12:40:12.832Z,68
2022-10-11T12:50:13.758Z,68
2022-10-11T13:00:14.539Z,68
2022-10-11T13:10:14.884Z,68
2022-10-11T13:20:15.723Z,67
2022-10-11T13:30:16.157Z,66
2022-10-11T13:40:16.884Z,65
2022-10-11T13:50:17.168Z,63
2022-10-11T14:00:18.167Z,63
2022-10-11T14:10:18.535Z,65
2022-10-11T14:20:18.642Z,66
2022-10-11T14:30:26.372Z,66
2022-10-11T14:40:19.234Z,67
2022-10-11T14:50:19.750Z,68
2022-10-11T15:00:20.046Z,69
2022-10-11T15:10:20.996Z,67
2022-10-11T15:20:21.231Z,64
2022-10-11T15:30:21.754Z,64
2022-10-11T15:40:22.250Z,63
2022-10-11T15:50:22.657Z,66
2022-10-11T16:00:23.539Z,67
2022-10-11T16:10:23.756Z,69
2022-10-11T16:20:24.632Z,72
2022-10-11T16:30:25.115Z,75
2022-10-11T16:40:25.986Z,77
2022-10-11T16:50:26.878Z,79
2022-10-11T17:00:27.817Z,81
2022-10-11T17:10:28.829Z,82
2022-10-11T17:20:29.506Z,84
2022-10-11T17:30:30.307Z,85
2022-10-11T17:50:31.738Z,87
2022-10-11T18:00:32.774Z,88
2022-10-11T18:10:32.998Z,89
2022-10-11T18:40:34.317Z,90
2022-10-11T19:00:40.968Z,90
2022-10-11T19:10:36.066Z,91
2022-10-11T19:20:36.860Z,91
2022-10-11T19:30:37.356Z,91
2022-10-11T19:40:37.755Z,91
2022-10-11T19:50:38.043Z,92
2022-10-11T20:00:38.525Z,92
2022-10-11T20:10:39.194Z,92
2022-10-11T20:20:40.194Z,92
2022-10-11T20:30:40.790Z,93
2022-10-11T20:40:41.613Z,93
2022-10-11T20:50:42.467Z,93
2022-10-11T21:00:43.088Z,93
2022-10-11T21:10:43.289Z,93
2022-10-11T21:20:43.431Z,94
2022-10-11T21:50:45.726Z,94
2022-10-11T22:10:47.513Z,94
2022-10-11T22:20:48.161Z,94
2022-10-11T22:30:48.384Z,94
2022-10-11T22:40:49.372Z,95
2022-10-11T22:50:49.606Z,95
2022-10-11T23:00:50.272Z,95
2022-10-11T23:10:51.176Z,95
2022-10-11T23:20:51.474Z,95
2022-10-11T23:30:52.324Z,95
2022-10-11T23:40:52.846Z,95
2022-10-11T23:50:52.985Z,95
